createdAt,value
2018-12-27T00:00:22.900Z,0
2018-12-27T00:01:22.465Z,0
2018-12-27T00:02:37.141Z,0
2018-12-27T00:03:22.498Z,0
2018-12-27T00:04:22.515Z,0
2018-12-27T00:05:22.531Z,0
2018-12-27T00:06:22.548Z,0
2018-12-27T00:07:22.562Z,0
2018-12-27T00:08:22.583Z,0
2018-12-27T00:09:22.595Z,0
2018-12-27T00:10:37.275Z,0
2018-12-27T00:11:22.632Z,0
2018-12-27T00:12:37.308Z,0
2018-12-27T00:13:37.323Z,0
2018-12-27T00:14:22.689Z,0
2018-12-27T00:15:22.693Z,0
2018-12-27T00:16:22.718Z,0
2018-12-27T00:18:37.409Z,0
2018-12-27T00:19:22.761Z,0
2018-12-27T00:20:22.781Z,0
2018-12-27T00:21:22.795Z,0
2018-12-27T00:22:22.809Z,0
2018-12-27T00:23:22.824Z,0
2018-12-27T00:24:22.842Z,0
2018-12-27T00:25:22.986Z,0
2018-12-27T00:26:22.877Z,0
2018-12-27T00:27:22.895Z,0
2018-12-27T00:28:22.909Z,0
2018-12-27T00:29:23.026Z,0
2018-12-27T00:30:23.031Z,0
2018-12-27T00:31:37.620Z,0
2018-12-27T00:32:22.983Z,0
2018-12-27T00:33:22.993Z,0
2018-12-27T00:34:37.673Z,0
2018-12-27T00:35:23.025Z,0
2018-12-27T00:36:23.043Z,0
2018-12-27T00:37:23.061Z,0
2018-12-27T00:38:23.074Z,0
2018-12-27T00:39:23.091Z,0
2018-12-27T00:40:23.110Z,0
2018-12-27T00:41:23.122Z,0
2018-12-27T00:42:23.141Z,0
2018-12-27T00:43:23.160Z,0
2018-12-27T00:44:23.173Z,0
2018-12-27T00:46:23.216Z,0
2018-12-27T00:47:23.294Z,0
2018-12-27T00:48:23.242Z,0
2018-12-27T00:49:37.919Z,0
2018-12-27T00:50:23.279Z,0
2018-12-27T00:51:23.291Z,0
2018-12-27T00:52:23.317Z,0
2018-12-27T00:53:23.403Z,0
2018-12-27T00:54:23.345Z,0
2018-12-27T00:55:23.356Z,0
2018-12-27T00:56:23.371Z,0
2018-12-27T00:57:38.057Z,0
2018-12-27T00:58:38.068Z,0
2018-12-27T00:59:38.084Z,0
2018-12-27T01:00:23.528Z,0
2018-12-27T01:01:23.454Z,0
2018-12-27T01:02:23.475Z,0
2018-12-27T01:03:23.490Z,0
2018-12-27T01:04:23.502Z,0
2018-12-27T01:06:23.638Z,0
2018-12-27T01:07:23.555Z,0
2018-12-27T01:08:23.573Z,0
2018-12-27T01:09:23.590Z,0
2018-12-27T01:10:23.607Z,0
2018-12-27T01:11:23.623Z,0
2018-12-27T01:12:23.636Z,0
2018-12-27T01:13:23.653Z,0
2018-12-27T01:14:23.668Z,0
2018-12-27T01:15:38.348Z,0
2018-12-27T01:16:23.516Z,0
2018-12-27T01:17:23.718Z,0
2018-12-27T01:18:23.733Z,0
2018-12-27T01:19:23.760Z,0
2018-12-27T01:20:23.770Z,0
2018-12-27T01:21:53.119Z,0
2018-12-27T01:22:23.801Z,0
2018-12-27T01:23:23.889Z,0
2018-12-27T01:24:23.833Z,0
2018-12-27T01:25:23.850Z,0
2018-12-27T01:26:23.867Z,0
2018-12-27T01:27:23.881Z,0
2018-12-27T01:28:23.649Z,0
2018-12-27T01:29:23.922Z,0
2018-12-27T01:30:23.930Z,0
2018-12-27T01:31:23.957Z,0
2018-12-27T01:33:26.140Z,0
2018-12-27T01:35:24.021Z,0
2018-12-27T01:36:23.782Z,0
2018-12-27T01:37:38.710Z,0
2018-12-27T01:38:24.065Z,0
2018-12-27T01:39:24.079Z,0
2018-12-27T01:40:24.098Z,0
2018-12-27T01:41:38.784Z,0
2018-12-27T01:42:24.137Z,0
2018-12-27T01:43:24.150Z,0
2018-12-27T01:44:24.160Z,0
2018-12-27T01:45:24.183Z,0
2018-12-27T01:46:24.194Z,0
2018-12-27T01:47:38.878Z,0
2018-12-27T01:48:24.229Z,0
2018-12-27T01:50:24.268Z,0
2018-12-27T01:52:24.168Z,0
2018-12-27T01:53:38.977Z,0
2018-12-27T01:54:24.326Z,0
2018-12-27T01:55:24.346Z,0
2018-12-27T01:56:24.366Z,0
2018-12-27T01:57:24.377Z,0
2018-12-27T01:58:24.399Z,0
2018-12-27T01:59:39.076Z,0
2018-12-27T02:00:24.429Z,0
2018-12-27T02:01:24.442Z,0
2018-12-27T02:02:39.125Z,0
2018-12-27T02:03:31.218Z,0
2018-12-27T02:04:24.495Z,0
2018-12-27T02:07:39.211Z,0
2018-12-27T02:08:24.562Z,0
2018-12-27T02:09:39.245Z,0
2018-12-27T02:10:24.343Z,0
2018-12-27T02:11:24.613Z,0
2018-12-27T02:12:24.621Z,0
2018-12-27T02:13:24.642Z,0
2018-12-27T02:14:24.659Z,0
2018-12-27T02:15:24.675Z,0
2018-12-27T02:16:39.357Z,0
2018-12-27T02:17:39.373Z,0
2018-12-27T02:18:24.723Z,0
2018-12-27T02:19:39.403Z,0
2018-12-27T02:20:26.322Z,0
2018-12-27T02:21:24.773Z,0
2018-12-27T02:22:24.793Z,0
2018-12-27T02:23:24.808Z,0
2018-12-27T02:24:39.487Z,0
2018-12-27T02:25:24.852Z,0
2018-12-27T02:26:24.927Z,0
2018-12-27T02:27:24.873Z,0
2018-12-27T02:28:24.893Z,0
2018-12-27T02:29:24.908Z,0
2018-12-27T02:30:24.940Z,0
2018-12-27T02:31:24.940Z,0
2018-12-27T02:32:24.970Z,0
2018-12-27T02:35:25.005Z,0
2018-12-27T02:36:25.029Z,0
2018-12-27T02:37:25.041Z,0
2018-12-27T02:39:25.081Z,0
2018-12-27T02:40:25.103Z,0
2018-12-27T02:41:25.105Z,0
2018-12-27T02:42:25.128Z,0
2018-12-27T02:43:25.146Z,0
2018-12-27T02:44:25.163Z,0
2018-12-27T02:45:25.177Z,0
2018-12-27T02:46:24.953Z,0
2018-12-27T02:47:25.206Z,0
2018-12-27T02:48:25.224Z,0
2018-12-27T02:49:39.919Z,0
2018-12-27T02:50:25.257Z,0
2018-12-27T02:51:25.374Z,0
2018-12-27T02:52:25.292Z,0
2018-12-27T02:53:39.966Z,0
2018-12-27T02:54:25.330Z,0
2018-12-27T02:55:25.355Z,0
2018-12-27T02:56:40.023Z,0
2018-12-27T02:58:25.407Z,0
2018-12-27T02:59:25.403Z,0
2018-12-27T03:00:25.421Z,0
2018-12-27T03:01:25.454Z,0
2018-12-27T03:02:25.450Z,0
2018-12-27T03:03:25.471Z,0
2018-12-27T03:04:40.150Z,0
2018-12-27T03:05:25.506Z,0
2018-12-27T03:07:25.584Z,0
2018-12-27T03:08:25.550Z,0
2018-12-27T03:09:25.569Z,0
2018-12-27T03:10:25.340Z,0
2018-12-27T03:11:25.602Z,0
2018-12-27T03:12:40.278Z,0
2018-12-27T03:13:25.633Z,0
2018-12-27T03:14:25.653Z,0
2018-12-27T03:15:25.674Z,0
2018-12-27T03:16:25.681Z,0
2018-12-27T03:17:25.699Z,0
2018-12-27T03:18:25.720Z,0
2018-12-27T03:19:25.733Z,0
2018-12-27T03:21:40.188Z,0
2018-12-27T03:22:25.784Z,0
2018-12-27T03:23:25.805Z,0
2018-12-27T03:24:25.826Z,0
2018-12-27T03:25:25.908Z,0
2018-12-27T03:26:25.859Z,0
2018-12-27T03:27:25.865Z,0
2018-12-27T03:28:40.547Z,0
2018-12-27T03:29:25.901Z,0
2018-12-27T03:30:25.937Z,0
2018-12-27T03:31:25.950Z,0
2018-12-27T03:32:25.966Z,0
2018-12-27T03:33:25.983Z,0
2018-12-27T03:35:25.999Z,0
2018-12-27T03:36:26.049Z,0
2018-12-27T03:37:40.696Z,0
2018-12-27T03:38:26.048Z,0
2018-12-27T03:39:26.071Z,0
2018-12-27T03:40:26.093Z,0
2018-12-27T03:41:26.091Z,0
2018-12-27T03:42:26.112Z,0
2018-12-27T03:43:40.789Z,0
2018-12-27T03:44:40.804Z,0
2018-12-27T03:46:26.178Z,0
2018-12-27T03:47:26.195Z,0
2018-12-27T03:48:40.880Z,0
2018-12-27T03:49:26.222Z,0
2018-12-27T03:50:26.239Z,0
2018-12-27T03:51:26.266Z,0
2018-12-27T03:52:40.700Z,0
2018-12-27T03:53:26.295Z,0
2018-12-27T03:54:26.321Z,0
2018-12-27T03:55:26.334Z,0
2018-12-27T03:56:26.351Z,0
2018-12-27T03:57:26.361Z,0
2018-12-27T03:58:26.375Z,0
2018-12-27T03:59:41.049Z,0
2018-12-27T04:00:26.411Z,0
2018-12-27T04:01:26.471Z,0
2018-12-27T04:02:26.448Z,0
2018-12-27T04:03:26.464Z,0
2018-12-27T04:04:26.474Z,0
2018-12-27T04:05:26.490Z,0
2018-12-27T04:06:41.166Z,0
2018-12-27T04:07:41.186Z,0
2018-12-27T04:08:26.537Z,0
2018-12-27T04:09:41.213Z,0
2018-12-27T04:10:26.572Z,0
2018-12-27T04:11:41.248Z,0
2018-12-27T04:12:26.595Z,0
2018-12-27T04:13:26.616Z,0
2018-12-27T04:14:26.638Z,0
2018-12-27T04:15:26.661Z,0
2018-12-27T04:16:26.678Z,0
2018-12-27T04:17:26.683Z,0
2018-12-27T04:18:26.696Z,0
2018-12-27T04:19:26.710Z,0
2018-12-27T04:20:26.743Z,0
2018-12-27T04:21:26.755Z,0
2018-12-27T04:22:26.766Z,0
2018-12-27T04:23:26.782Z,0
2018-12-27T04:24:26.801Z,0
2018-12-27T04:25:26.915Z,0
2018-12-27T04:26:26.829Z,0
2018-12-27T04:27:26.844Z,0
2018-12-27T04:28:41.526Z,0
2018-12-27T04:29:26.888Z,0
2018-12-27T04:30:26.893Z,0
2018-12-27T04:31:41.572Z,0
2018-12-27T04:32:26.925Z,0
2018-12-27T04:33:26.969Z,0
2018-12-27T04:34:26.960Z,0
2018-12-27T04:36:26.992Z,0
2018-12-27T04:37:27.011Z,0
2018-12-27T04:38:27.035Z,0
2018-12-27T04:39:41.704Z,0
2018-12-27T04:40:27.057Z,0
2018-12-27T04:41:27.073Z,0
2018-12-27T04:42:27.088Z,0
2018-12-27T04:44:27.136Z,0
2018-12-27T04:45:27.141Z,0
2018-12-27T04:46:27.166Z,0
2018-12-27T04:47:41.934Z,0
2018-12-27T04:48:26.937Z,0
2018-12-27T04:49:27.206Z,0
2018-12-27T04:50:41.888Z,0
2018-12-27T04:51:27.237Z,0
2018-12-27T04:52:27.255Z,0
2018-12-27T04:53:27.270Z,0
2018-12-27T04:54:27.288Z,0
2018-12-27T04:55:27.298Z,0
2018-12-27T04:56:27.318Z,0
2018-12-27T04:57:27.339Z,0
2018-12-27T04:58:27.356Z,0
2018-12-27T04:59:27.365Z,0
2018-12-27T05:00:27.378Z,0
2018-12-27T05:01:27.394Z,0
2018-12-27T05:02:27.174Z,0
2018-12-27T05:03:42.100Z,0
2018-12-27T05:04:27.448Z,0
2018-12-27T05:05:27.461Z,0
2018-12-27T05:06:27.476Z,0
2018-12-27T05:07:27.540Z,0
2018-12-27T05:08:42.177Z,0
2018-12-27T05:09:27.546Z,0
2018-12-27T05:10:27.545Z,0
2018-12-27T05:12:27.585Z,0
2018-12-27T05:13:27.591Z,0
2018-12-27T05:14:27.653Z,0
2018-12-27T05:15:27.627Z,0
2018-12-27T05:16:27.650Z,0
2018-12-27T05:17:27.661Z,0
2018-12-27T05:18:27.676Z,0
2018-12-27T05:19:42.352Z,0
2018-12-27T05:21:27.722Z,0
2018-12-27T05:22:27.739Z,0
2018-12-27T05:23:27.752Z,0
2018-12-27T05:24:27.769Z,0
2018-12-27T05:25:27.791Z,0
2018-12-27T05:27:27.929Z,0
2018-12-27T05:28:27.852Z,0
2018-12-27T05:29:42.527Z,0
2018-12-27T05:30:27.864Z,0
2018-12-27T05:31:42.543Z,0
2018-12-27T05:33:27.918Z,0
2018-12-27T05:34:42.592Z,0
2018-12-27T05:35:27.945Z,0
2018-12-27T05:36:27.977Z,0
2018-12-27T05:37:27.998Z,0
2018-12-27T05:39:28.011Z,0
2018-12-27T05:40:28.033Z,0
2018-12-27T05:42:28.055Z,0
2018-12-27T05:43:28.076Z,0
2018-12-27T05:44:28.093Z,0
2018-12-27T05:47:28.140Z,0
2018-12-27T05:48:28.158Z,0
2018-12-27T05:49:28.174Z,0
2018-12-27T05:50:28.190Z,0
2018-12-27T05:51:28.208Z,0
2018-12-27T05:52:28.223Z,0
2018-12-27T05:53:28.235Z,0
2018-12-27T05:54:28.256Z,0
2018-12-27T05:55:34.162Z,0
2018-12-27T05:57:28.303Z,0
2018-12-27T05:58:28.372Z,0
2018-12-27T05:59:28.341Z,0
2018-12-27T06:00:28.348Z,0
2018-12-27T06:01:28.116Z,0
2018-12-27T06:02:28.381Z,0
2018-12-27T06:03:28.395Z,0
2018-12-27T06:04:36.145Z,0
2018-12-27T06:06:43.108Z,0
2018-12-27T06:08:28.476Z,0
2018-12-27T06:09:28.496Z,0
2018-12-27T06:10:28.510Z,0
2018-12-27T06:11:43.192Z,0
2018-12-27T06:12:28.539Z,0
2018-12-27T06:13:28.561Z,0
2018-12-27T06:14:28.576Z,0
2018-12-27T06:15:28.733Z,0
2018-12-27T06:16:28.608Z,0
2018-12-27T06:17:28.622Z,0
2018-12-27T06:18:28.648Z,0
2018-12-27T06:19:28.671Z,0
2018-12-27T06:21:28.688Z,0
2018-12-27T06:22:43.365Z,0
2018-12-27T06:23:28.727Z,0
2018-12-27T06:24:28.743Z,0
2018-12-27T06:25:28.769Z,0
2018-12-27T06:26:28.766Z,0
2018-12-27T06:27:28.558Z,0
2018-12-27T06:28:28.797Z,0
2018-12-27T06:29:28.814Z,0
2018-12-27T06:31:28.850Z,0
2018-12-27T06:32:28.870Z,0
2018-12-27T06:33:28.888Z,0
2018-12-27T06:34:28.893Z,0
2018-12-27T06:35:28.911Z,0
2018-12-27T06:36:28.925Z,0
2018-12-27T06:37:28.940Z,0
2018-12-27T06:38:58.288Z,0
2018-12-27T06:39:28.979Z,0
2018-12-27T06:40:28.990Z,0
2018-12-27T06:41:29.025Z,0
2018-12-27T06:42:29.023Z,0
2018-12-27T06:43:29.043Z,4
2018-12-27T06:45:29.074Z,4
2018-12-27T06:46:29.083Z,4
2018-12-27T06:47:43.764Z,4
2018-12-27T06:48:29.116Z,4
2018-12-27T06:49:29.132Z,8
2018-12-27T06:51:43.929Z,12
2018-12-27T06:52:29.192Z,12
2018-12-27T06:54:43.874Z,16
2018-12-27T06:56:29.253Z,20
2018-12-27T06:58:29.276Z,24
2018-12-27T06:59:29.299Z,28
2018-12-27T07:00:29.309Z,32
2018-12-27T07:01:29.320Z,32
2018-12-27T07:02:29.340Z,36
2018-12-27T07:03:29.454Z,40
2018-12-27T07:04:29.370Z,40
2018-12-27T07:05:29.389Z,44
2018-12-27T07:06:44.077Z,52
2018-12-27T07:07:29.423Z,60
2018-12-27T07:08:29.436Z,64
2018-12-27T07:09:44.113Z,80
2018-12-27T07:10:29.465Z,84
2018-12-27T07:11:29.483Z,84
2018-12-27T07:12:29.502Z,100
2018-12-27T07:13:29.511Z,112
2018-12-27T07:14:29.528Z,136
2018-12-27T07:15:29.543Z,164
2018-12-27T07:16:29.560Z,184
2018-12-27T07:17:29.573Z,228
2018-12-27T07:18:29.592Z,264
2018-12-27T07:19:29.610Z,304
2018-12-27T07:20:29.628Z,340
2018-12-27T07:21:29.637Z,384
2018-12-27T07:22:44.079Z,444
2018-12-27T07:23:29.429Z,480
2018-12-27T07:24:29.691Z,516
2018-12-27T07:25:29.703Z,560
2018-12-27T07:26:29.721Z,596
2018-12-27T07:28:44.465Z,672
2018-12-27T07:29:29.760Z,708
2018-12-27T07:30:29.780Z,756
2018-12-27T07:31:29.796Z,816
2018-12-27T07:32:29.814Z,868
2018-12-27T07:33:29.825Z,904
2018-12-27T07:34:44.504Z,940
2018-12-27T07:35:44.518Z,972
2018-12-27T07:36:29.882Z,1004
2018-12-27T07:37:29.888Z,1036
2018-12-27T07:38:29.904Z,1036
2018-12-27T07:39:29.919Z,1016
2018-12-27T07:40:29.933Z,1012
2018-12-27T07:41:44.666Z,1056
2018-12-27T07:42:29.966Z,1096
2018-12-27T07:43:29.999Z,1148
2018-12-27T07:44:29.996Z,1176
2018-12-27T07:45:30.014Z,1200
2018-12-27T07:46:30.032Z,1224
2018-12-27T07:47:30.042Z,1244
2018-12-27T07:48:30.061Z,1252
2018-12-27T07:49:30.074Z,1256
2018-12-27T07:50:30.098Z,1284
2018-12-27T07:51:44.766Z,1376
2018-12-27T07:52:30.120Z,1464
2018-12-27T07:53:30.136Z,1604
2018-12-27T07:54:30.155Z,1780
2018-12-27T07:55:30.169Z,2052
2018-12-27T07:56:30.185Z,2400
2018-12-27T07:57:44.863Z,2612
2018-12-27T07:58:30.218Z,2668
2018-12-27T07:59:30.237Z,2676
2018-12-27T08:00:30.264Z,2512
2018-12-27T08:01:30.259Z,2328
2018-12-27T08:02:30.277Z,2184
2018-12-27T08:03:30.291Z,2080
2018-12-27T08:04:30.451Z,2200
2018-12-27T08:05:30.380Z,2040
2018-12-27T08:06:30.352Z,1452
2018-12-27T08:07:45.020Z,884
2018-12-27T08:08:30.374Z,640
2018-12-27T08:09:45.052Z,468
2018-12-27T08:10:45.067Z,424
2018-12-27T08:11:30.425Z,384
2018-12-27T08:12:30.434Z,356
2018-12-27T08:13:45.134Z,376
2018-12-27T08:14:45.140Z,384
2018-12-27T08:15:30.489Z,448
2018-12-27T08:16:30.507Z,512
2018-12-27T08:17:30.515Z,544
2018-12-27T08:18:30.531Z,540
2018-12-27T08:19:30.551Z,496
2018-12-27T08:20:30.561Z,484
2018-12-27T08:21:30.577Z,500
2018-12-27T08:22:45.255Z,508
2018-12-27T08:23:45.269Z,480
2018-12-27T08:24:30.631Z,476
2018-12-27T08:25:45.304Z,484
2018-12-27T08:26:45.316Z,472
2018-12-27T08:27:30.672Z,480
2018-12-27T08:28:30.685Z,496
2018-12-27T08:29:45.367Z,496
2018-12-27T08:30:30.718Z,504
2018-12-27T08:31:30.825Z,516
2018-12-27T08:32:30.748Z,464
2018-12-27T08:33:30.767Z,416
2018-12-27T08:34:30.786Z,448
2018-12-27T08:35:45.461Z,468
2018-12-27T08:37:30.831Z,444
2018-12-27T08:38:30.848Z,452
2018-12-27T08:40:30.873Z,580
2018-12-27T08:41:30.640Z,644
2018-12-27T08:43:30.925Z,616
2018-12-27T08:44:45.602Z,600
2018-12-27T08:45:30.954Z,568
2018-12-27T08:46:30.967Z,596
2018-12-27T08:47:30.992Z,560
2018-12-27T08:48:45.667Z,564
2018-12-27T08:49:31.022Z,640
2018-12-27T08:50:31.030Z,708
2018-12-27T08:51:31.046Z,744
2018-12-27T08:52:31.062Z,664
2018-12-27T08:53:31.079Z,624
2018-12-27T08:54:31.913Z,632
2018-12-27T08:55:31.112Z,620
2018-12-27T08:59:31.169Z,632
2018-12-27T09:00:31.190Z,628
2018-12-27T09:01:31.205Z,648
2018-12-27T09:02:31.222Z,648
2018-12-27T09:03:31.236Z,620
2018-12-27T09:04:31.254Z,612
2018-12-27T09:05:31.296Z,596
2018-12-27T09:06:31.278Z,600
2018-12-27T09:07:31.377Z,584
2018-12-27T09:08:31.310Z,668
2018-12-27T09:09:31.328Z,676
2018-12-27T09:10:31.344Z,624
2018-12-27T09:11:31.368Z,624
2018-12-27T09:12:46.039Z,648
2018-12-27T09:13:46.053Z,624
2018-12-27T09:14:31.403Z,720
2018-12-27T09:15:31.470Z,676
2018-12-27T09:16:46.099Z,688
2018-12-27T09:17:46.122Z,708
2018-12-27T09:18:31.472Z,744
2018-12-27T09:19:31.499Z,772
2018-12-27T09:20:31.504Z,772
2018-12-27T09:21:31.514Z,752
2018-12-27T09:22:31.529Z,732
2018-12-27T09:23:31.547Z,696
2018-12-27T09:24:31.565Z,684
2018-12-27T09:25:31.581Z,704
2018-12-27T09:26:31.595Z,732
2018-12-27T09:27:31.610Z,684
2018-12-27T09:29:31.639Z,736
2018-12-27T09:30:31.655Z,636
2018-12-27T09:32:46.351Z,664
2018-12-27T09:33:31.702Z,612
2018-12-27T09:34:31.722Z,640
2018-12-27T09:35:33.664Z,688
2018-12-27T09:36:31.750Z,620
2018-12-27T09:38:31.781Z,596
2018-12-27T09:39:31.796Z,636
2018-12-27T09:40:31.818Z,684
2018-12-27T09:41:31.833Z,668
2018-12-27T09:42:46.507Z,700
2018-12-27T09:45:31.893Z,720
2018-12-27T09:47:31.923Z,760
2018-12-27T09:48:46.600Z,744
2018-12-27T09:49:31.955Z,824
2018-12-27T09:50:31.968Z,840
2018-12-27T09:51:31.984Z,816
2018-12-27T09:52:32.004Z,852
2018-12-27T09:53:32.016Z,888
2018-12-27T09:54:32.032Z,804
2018-12-27T09:55:32.050Z,696
2018-12-27T09:56:32.060Z,708
2018-12-27T09:57:32.079Z,776
2018-12-27T09:58:32.093Z,760
2018-12-27T09:59:32.117Z,752
2018-12-27T10:02:32.157Z,876
2018-12-27T10:03:32.171Z,920
2018-12-27T10:04:46.852Z,832
2018-12-27T10:06:32.227Z,944
2018-12-27T10:07:32.235Z,952
2018-12-27T10:08:32.255Z,980
2018-12-27T10:09:32.268Z,956
2018-12-27T10:10:32.281Z,1056
2018-12-27T10:11:32.295Z,1220
2018-12-27T10:12:32.310Z,1176
2018-12-27T10:13:46.992Z,1164
2018-12-27T10:14:32.344Z,1144
2018-12-27T10:15:32.534Z,1240
2018-12-27T10:16:32.377Z,1444
2018-12-27T10:17:47.055Z,1580
2018-12-27T10:18:32.412Z,1480
2018-12-27T10:19:47.109Z,1196
2018-12-27T10:20:32.439Z,1160
2018-12-27T10:22:32.477Z,1336
2018-12-27T10:23:32.587Z,1348
2018-12-27T10:24:32.508Z,1272
2018-12-27T10:25:32.522Z,1324
2018-12-27T10:26:47.200Z,1340
2018-12-27T10:27:32.554Z,1416
2018-12-27T10:28:32.564Z,1412
2018-12-27T10:29:32.853Z,1476
2018-12-27T10:30:32.599Z,1432
2018-12-27T10:32:32.632Z,1392
2018-12-27T10:33:32.645Z,1584
2018-12-27T10:35:32.772Z,1364
2018-12-27T10:36:32.695Z,1412
2018-12-27T10:37:32.714Z,1308
2018-12-27T10:38:32.732Z,1120
2018-12-27T10:39:32.751Z,1176
2018-12-27T10:40:32.753Z,1152
2018-12-27T10:41:32.772Z,1056
2018-12-27T10:42:32.792Z,1140
2018-12-27T10:43:32.803Z,1208
2018-12-27T10:44:47.484Z,1236
2018-12-27T10:45:32.587Z,1212
2018-12-27T10:46:32.851Z,1148
2018-12-27T10:47:32.866Z,1136
2018-12-27T10:48:32.895Z,1144
2018-12-27T10:49:32.908Z,1120
2018-12-27T10:50:32.912Z,1184
2018-12-27T10:51:47.594Z,1312
2018-12-27T10:52:32.946Z,1236
2018-12-27T10:53:32.963Z,1116
2018-12-27T10:54:47.647Z,1272
2018-12-27T10:55:32.992Z,1288
2018-12-27T10:56:33.012Z,1188
2018-12-27T10:57:34.848Z,1156
2018-12-27T10:58:33.039Z,1160
2018-12-27T10:59:47.720Z,1232
2018-12-27T11:00:33.075Z,1224
2018-12-27T11:01:33.088Z,1280
2018-12-27T11:02:33.105Z,1316
2018-12-27T11:03:37.767Z,1496
2018-12-27T11:05:33.151Z,1408
2018-12-27T11:06:33.166Z,1772
2018-12-27T11:07:47.846Z,1624
2018-12-27T11:08:33.300Z,1728
2018-12-27T11:09:33.220Z,1896
2018-12-27T11:10:33.239Z,1736
2018-12-27T11:11:33.251Z,1880
2018-12-27T11:12:33.267Z,1908
2018-12-27T11:13:33.295Z,2064
2018-12-27T11:14:33.294Z,2180
2018-12-27T11:15:47.974Z,1916
2018-12-27T11:16:33.328Z,2008
2018-12-27T11:17:33.339Z,2284
2018-12-27T11:18:33.423Z,2304
2018-12-27T11:19:33.375Z,2388
2018-12-27T11:20:33.397Z,2492
2018-12-27T11:21:33.413Z,2452
2018-12-27T11:22:33.422Z,2748
2018-12-27T11:23:48.103Z,2524
2018-12-27T11:25:33.470Z,2044
2018-12-27T11:26:33.600Z,1732
2018-12-27T11:27:33.505Z,1804
2018-12-27T11:28:33.517Z,1792
2018-12-27T11:29:33.535Z,1524
2018-12-27T11:30:33.550Z,1372
2018-12-27T11:31:33.572Z,1264
2018-12-27T11:32:33.346Z,1128
2018-12-27T11:33:33.605Z,1096
2018-12-27T11:34:33.618Z,1392
2018-12-27T11:35:33.635Z,1440
2018-12-27T11:38:33.684Z,1376
2018-12-27T11:39:48.360Z,1456
2018-12-27T11:40:33.713Z,1692
2018-12-27T11:41:33.780Z,1724
2018-12-27T11:42:33.750Z,1572
2018-12-27T11:43:33.761Z,1424
2018-12-27T11:44:33.778Z,1460
2018-12-27T11:45:33.790Z,1560
2018-12-27T11:47:33.824Z,1604
2018-12-27T11:48:33.841Z,1964
2018-12-27T11:49:33.857Z,1884
2018-12-27T11:50:33.871Z,1660
2018-12-27T11:51:33.887Z,1428
2018-12-27T11:52:48.569Z,1224
2018-12-27T11:54:48.652Z,1176
2018-12-27T11:55:33.952Z,1204
2018-12-27T11:56:33.971Z,1164
2018-12-27T11:57:33.986Z,1112
2018-12-27T11:58:34.003Z,1188
2018-12-27T11:59:34.018Z,1184
2018-12-27T12:00:34.032Z,1012
2018-12-27T12:01:34.105Z,1100
2018-12-27T12:02:38.387Z,992
2018-12-27T12:03:34.084Z,860
2018-12-27T12:04:34.114Z,896
2018-12-27T12:05:34.168Z,868
2018-12-27T12:07:34.155Z,968
2018-12-27T12:08:34.172Z,932
2018-12-27T12:09:34.182Z,936
2018-12-27T12:10:34.202Z,920
2018-12-27T12:11:34.214Z,1004
2018-12-27T12:12:34.225Z,1024
2018-12-27T12:13:34.341Z,996
2018-12-27T12:14:34.257Z,1096
2018-12-27T12:15:34.275Z,1092
2018-12-27T12:16:34.288Z,1072
2018-12-27T12:17:34.306Z,1004
2018-12-27T12:18:34.322Z,1012
2018-12-27T12:19:49.003Z,1020
2018-12-27T12:20:35.695Z,1068
2018-12-27T12:21:34.124Z,1068
2018-12-27T12:22:34.395Z,1180
2018-12-27T12:23:34.456Z,1016
2018-12-27T12:24:34.466Z,1068
2018-12-27T12:25:34.465Z,1380
2018-12-27T12:26:49.114Z,1288
2018-12-27T12:28:34.491Z,1268
2018-12-27T12:29:34.499Z,1132
2018-12-27T12:30:34.521Z,1100
2018-12-27T12:31:34.531Z,1100
2018-12-27T12:32:34.547Z,1216
2018-12-27T12:34:34.581Z,1260
2018-12-27T12:35:49.258Z,1292
2018-12-27T12:36:34.665Z,1232
2018-12-27T12:37:49.288Z,1288
2018-12-27T12:38:34.643Z,1208
2018-12-27T12:39:49.324Z,1296
2018-12-27T12:40:34.682Z,1388
2018-12-27T12:42:49.376Z,1408
2018-12-27T12:43:34.723Z,1308
2018-12-27T12:44:34.742Z,1284
2018-12-27T12:45:34.755Z,1116
2018-12-27T12:46:34.776Z,1148
2018-12-27T12:47:34.786Z,1096
2018-12-27T12:48:34.806Z,1048
2018-12-27T12:49:34.875Z,1052
2018-12-27T12:50:34.836Z,1200
2018-12-27T12:51:34.855Z,1228
2018-12-27T12:52:34.871Z,1264
2018-12-27T12:53:34.884Z,1192
2018-12-27T12:54:49.567Z,1304
2018-12-27T12:55:34.914Z,1212
2018-12-27T12:56:34.937Z,1172
2018-12-27T12:57:34.952Z,1088
2018-12-27T12:58:49.682Z,1176
2018-12-27T13:00:34.998Z,1164
2018-12-27T13:01:35.018Z,1068
2018-12-27T13:02:35.031Z,1024
2018-12-27T13:03:35.044Z,972
2018-12-27T13:04:34.814Z,892
2018-12-27T13:05:35.077Z,948
2018-12-27T13:06:35.097Z,916
2018-12-27T13:08:35.128Z,936
2018-12-27T13:09:35.144Z,1076
2018-12-27T13:10:35.158Z,956
2018-12-27T13:11:35.174Z,892
2018-12-27T13:12:35.241Z,860
2018-12-27T13:13:35.212Z,884
2018-12-27T13:14:49.884Z,1024
2018-12-27T13:15:35.000Z,1000
2018-12-27T13:16:35.257Z,908
2018-12-27T13:17:35.270Z,976
2018-12-27T13:18:35.292Z,1012
2018-12-27T13:19:35.304Z,824
2018-12-27T13:20:35.321Z,780
2018-12-27T13:21:50.001Z,856
2018-12-27T13:22:35.355Z,832
2018-12-27T13:23:50.033Z,820
2018-12-27T13:24:50.046Z,756
2018-12-27T13:25:35.402Z,724
2018-12-27T13:26:35.415Z,712
2018-12-27T13:27:35.455Z,664
2018-12-27T13:28:35.703Z,684
2018-12-27T13:29:50.129Z,632
2018-12-27T13:30:35.482Z,680
2018-12-27T13:31:35.499Z,664
2018-12-27T13:33:35.535Z,640
2018-12-27T13:34:36.118Z,588
2018-12-27T13:35:35.564Z,556
2018-12-27T13:36:50.243Z,500
2018-12-27T13:37:35.601Z,516
2018-12-27T13:38:35.611Z,528
2018-12-27T13:39:35.632Z,508
2018-12-27T13:40:35.641Z,492
2018-12-27T13:41:35.663Z,420
2018-12-27T13:42:35.670Z,480
2018-12-27T13:43:35.687Z,448
2018-12-27T13:44:35.706Z,464
2018-12-27T13:46:35.738Z,352
2018-12-27T13:47:35.757Z,332
2018-12-27T13:48:35.772Z,364
2018-12-27T13:49:35.782Z,320
2018-12-27T13:50:35.800Z,348
2018-12-27T13:51:35.826Z,368
2018-12-27T13:52:35.838Z,356
2018-12-27T13:53:35.859Z,336
2018-12-27T13:54:50.529Z,348
2018-12-27T13:55:35.885Z,360
2018-12-27T13:56:35.909Z,368
2018-12-27T13:57:35.920Z,376
2018-12-27T13:58:35.934Z,340
2018-12-27T13:59:35.947Z,380
2018-12-27T14:00:35.964Z,292
2018-12-27T14:01:50.396Z,288
2018-12-27T14:02:35.996Z,260
2018-12-27T14:03:36.011Z,236
2018-12-27T14:04:36.028Z,252
2018-12-27T14:05:36.082Z,284
2018-12-27T14:06:39.911Z,228
2018-12-27T14:07:36.074Z,228
2018-12-27T14:08:36.093Z,244
2018-12-27T14:09:36.106Z,212
2018-12-27T14:10:50.785Z,216
2018-12-27T14:11:36.145Z,228
2018-12-27T14:12:36.155Z,224
2018-12-27T14:13:36.169Z,184
2018-12-27T14:14:36.287Z,176
2018-12-27T14:15:36.313Z,156
2018-12-27T14:16:36.271Z,144
2018-12-27T14:17:50.898Z,128
2018-12-27T14:18:36.252Z,136
2018-12-27T14:19:36.267Z,140
2018-12-27T14:20:36.289Z,128
2018-12-27T14:21:36.305Z,136
2018-12-27T14:22:36.312Z,176
2018-12-27T14:23:36.331Z,140
2018-12-27T14:24:36.358Z,136
2018-12-27T14:25:36.365Z,120
2018-12-27T14:26:36.381Z,132
2018-12-27T14:27:51.056Z,128
2018-12-27T14:28:51.074Z,140
2018-12-27T14:29:36.482Z,168
2018-12-27T14:30:36.449Z,136
2018-12-27T14:32:51.147Z,112
2018-12-27T14:33:51.159Z,100
2018-12-27T14:34:36.562Z,100
2018-12-27T14:35:36.525Z,96
2018-12-27T14:36:51.207Z,92
2018-12-27T14:37:36.552Z,88
2018-12-27T14:38:36.569Z,100
2018-12-27T14:39:36.602Z,84
2018-12-27T14:40:36.603Z,76
2018-12-27T14:41:36.622Z,80
2018-12-27T14:42:36.635Z,72
2018-12-27T14:43:36.657Z,64
2018-12-27T14:44:36.669Z,60
2018-12-27T14:45:36.681Z,52
2018-12-27T14:47:36.717Z,40
2018-12-27T14:48:36.736Z,36
2018-12-27T14:49:51.407Z,32
2018-12-27T14:50:36.765Z,28
2018-12-27T14:51:36.783Z,32
2018-12-27T14:52:36.797Z,28
2018-12-27T14:53:36.857Z,28
2018-12-27T14:54:36.840Z,24
2018-12-27T14:55:36.859Z,20
2018-12-27T14:56:36.870Z,24
2018-12-27T14:57:36.880Z,24
2018-12-27T14:58:51.553Z,16
2018-12-27T14:59:36.967Z,20
2018-12-27T15:00:36.929Z,16
2018-12-27T15:01:37.343Z,16
2018-12-27T15:03:36.978Z,16
2018-12-27T15:04:51.709Z,12
2018-12-27T15:05:37.003Z,12
2018-12-27T15:06:37.020Z,8
2018-12-27T15:07:37.035Z,12
2018-12-27T15:08:37.050Z,12
2018-12-27T15:09:37.071Z,8
2018-12-27T15:10:37.083Z,8
2018-12-27T15:12:37.121Z,4
2018-12-27T15:13:37.133Z,8
2018-12-27T15:14:37.152Z,4
2018-12-27T15:15:37.162Z,4
2018-12-27T15:16:37.176Z,4
2018-12-27T15:17:37.193Z,0
2018-12-27T15:18:37.209Z,4
2018-12-27T15:19:37.230Z,4
2018-12-27T15:20:37.243Z,0
2018-12-27T15:21:37.257Z,0
2018-12-27T15:22:37.272Z,0